sensor_id;sensor_type;location;lat;lon;timestamp;P1;durP1;ratioP1;P2;durP2;ratioP2
44212;SDS011;29882;46.356;17.798;2022-10-31T18:15:29;45.63;;;34.47;;
44212;SDS011;29882;46.356;17.798;2022-10-31T18:17:56;37.35;;;32.10;;
44212;SDS011;29882;46.356;17.798;2022-10-31T18:20:23;50.35;;;32.55;;
44212;SDS011;29882;46.356;17.798;2022-10-31T18:22:50;55.15;;;33.00;;
44212;SDS011;29882;46.356;17.798;2022-10-31T18:25:18;43.35;;;32.63;;
44212;SDS011;29882;46.356;17.798;2022-10-31T18:27:45;45.30;;;34.25;;
44212;SDS011;29882;46.356;17.798;2022-10-31T18:30:13;38.67;;;32.30;;
44212;SDS011;29882;46.356;17.798;2022-10-31T18:32:40;41.28;;;33.38;;
44212;SDS011;29882;46.356;17.798;2022-10-31T18:35:08;59.33;;;44.58;;
44212;SDS011;29882;46.356;17.798;2022-10-31T18:37:36;49.80;;;35.13;;
44212;SDS011;29882;46.356;17.798;2022-10-31T18:40:04;42.13;;;33.75;;
44212;SDS011;29882;46.356;17.798;2022-10-31T18:42:31;42.10;;;34.63;;
44212;SDS011;29882;46.356;17.798;2022-10-31T18:44:59;49.95;;;36.88;;
44212;SDS011;29882;46.356;17.798;2022-10-31T18:47:42;45.90;;;35.38;;
44212;SDS011;29882;46.356;17.798;2022-10-31T18:50:10;52.05;;;37.25;;
44212;SDS011;29882;46.356;17.798;2022-10-31T18:52:38;43.25;;;36.03;;
44212;SDS011;29882;46.356;17.798;2022-10-31T18:55:06;43.45;;;36.58;;
44212;SDS011;29882;46.356;17.798;2022-10-31T18:57:34;52.65;;;38.17;;
44212;SDS011;29882;46.356;17.798;2022-10-31T19:00:05;44.47;;;35.95;;
44212;SDS011;29882;46.356;17.798;2022-10-31T19:02:33;51.05;;;37.38;;
44212;SDS011;29882;46.356;17.798;2022-10-31T19:05:03;39.83;;;35.53;;
44212;SDS011;29882;46.356;17.798;2022-10-31T19:07:31;40.40;;;34.60;;
44212;SDS011;29882;46.356;17.798;2022-10-31T19:09:59;43.70;;;34.50;;
44212;SDS011;29882;46.356;17.798;2022-10-31T19:12:26;39.38;;;34.35;;
44212;SDS011;29882;46.356;17.798;2022-10-31T19:14:53;41.42;;;34.92;;
44212;SDS011;29882;46.356;17.798;2022-10-31T19:17:22;39.40;;;33.97;;
44212;SDS011;29882;46.356;17.798;2022-10-31T19:19:51;40.65;;;35.72;;
44212;SDS011;29882;46.356;17.798;2022-10-31T19:22:18;39.50;;;35.17;;
44212;SDS011;29882;46.356;17.798;2022-10-31T19:24:45;39.20;;;34.72;;
44212;SDS011;29882;46.356;17.798;2022-10-31T19:27:13;38.35;;;33.63;;
44212;SDS011;29882;46.356;17.798;2022-10-31T19:29:41;39.65;;;33.67;;
44212;SDS011;29882;46.356;17.798;2022-10-31T19:32:08;39.20;;;34.85;;
44212;SDS011;29882;46.356;17.798;2022-10-31T19:34:36;39.92;;;34.45;;
44212;SDS011;29882;46.356;17.798;2022-10-31T19:37:03;35.42;;;31.70;;
44212;SDS011;29882;46.356;17.798;2022-10-31T19:39:30;36.38;;;32.58;;
44212;SDS011;29882;46.356;17.798;2022-10-31T19:42:06;38.88;;;33.47;;
44212;SDS011;29882;46.356;17.798;2022-10-31T19:44:33;38.88;;;33.83;;
44212;SDS011;29882;46.356;17.798;2022-10-31T19:47:00;37.15;;;31.90;;
44212;SDS011;29882;46.356;17.798;2022-10-31T19:49:28;38.13;;;34.08;;
44212;SDS011;29882;46.356;17.798;2022-10-31T19:51:55;41.40;;;34.53;;
44212;SDS011;29882;46.356;17.798;2022-10-31T19:54:23;36.70;;;32.70;;
44212;SDS011;29882;46.356;17.798;2022-10-31T19:56:50;37.35;;;32.08;;
44212;SDS011;29882;46.356;17.798;2022-10-31T19:59:21;36.38;;;31.08;;
44212;SDS011;29882;46.356;17.798;2022-10-31T20:01:48;34.53;;;30.77;;
44212;SDS011;29882;46.356;17.798;2022-10-31T20:04:16;37.38;;;31.50;;
44212;SDS011;29882;46.356;17.798;2022-10-31T20:06:43;36.72;;;32.80;;
44212;SDS011;29882;46.356;17.798;2022-10-31T20:09:11;39.50;;;33.65;;
44212;SDS011;29882;46.356;17.798;2022-10-31T20:11:40;35.97;;;31.67;;
44212;SDS011;29882;46.356;17.798;2022-10-31T20:14:11;37.33;;;32.45;;
44212;SDS011;29882;46.356;17.798;2022-10-31T20:16:40;37.30;;;32.53;;
44212;SDS011;29882;46.356;17.798;2022-10-31T20:19:08;36.92;;;32.92;;
44212;SDS011;29882;46.356;17.798;2022-10-31T20:21:36;41.70;;;33.67;;
44212;SDS011;29882;46.356;17.798;2022-10-31T20:24:06;38.50;;;33.30;;
44212;SDS011;29882;46.356;17.798;2022-10-31T20:26:36;37.05;;;33.05;;
44212;SDS011;29882;46.356;17.798;2022-10-31T20:29:05;39.50;;;33.17;;
44212;SDS011;29882;46.356;17.798;2022-10-31T20:31:34;43.03;;;33.60;;
44212;SDS011;29882;46.356;17.798;2022-10-31T20:34:02;38.33;;;33.10;;
44212;SDS011;29882;46.356;17.798;2022-10-31T20:36:30;40.88;;;32.83;;
44212;SDS011;29882;46.356;17.798;2022-10-31T20:38:58;39.28;;;34.30;;
44212;SDS011;29882;46.356;17.798;2022-10-31T20:41:25;38.25;;;32.42;;
44212;SDS011;29882;46.356;17.798;2022-10-31T20:43:53;37.83;;;31.33;;
44212;SDS011;29882;46.356;17.798;2022-10-31T20:46:21;35.90;;;31.48;;
44212;SDS011;29882;46.356;17.798;2022-10-31T20:48:50;39.72;;;32.50;;
44212;SDS011;29882;46.356;17.798;2022-10-31T20:51:22;36.25;;;31.98;;
44212;SDS011;29882;46.356;17.798;2022-10-31T20:53:51;38.28;;;32.80;;
44212;SDS011;29882;46.356;17.798;2022-10-31T20:56:20;39.67;;;32.58;;
44212;SDS011;29882;46.356;17.798;2022-10-31T20:58:50;38.15;;;32.50;;
44212;SDS011;29882;46.356;17.798;2022-10-31T21:01:21;40.80;;;32.60;;
44212;SDS011;29882;46.356;17.798;2022-10-31T21:03:50;37.90;;;30.98;;
44212;SDS011;29882;46.356;17.798;2022-10-31T21:06:18;38.15;;;31.25;;
44212;SDS011;29882;46.356;17.798;2022-10-31T21:08:47;37.28;;;30.48;;
44212;SDS011;29882;46.356;17.798;2022-10-31T21:11:15;40.80;;;32.60;;
44212;SDS011;29882;46.356;17.798;2022-10-31T21:13:47;44.35;;;34.10;;
44212;SDS011;29882;46.356;17.798;2022-10-31T21:16:20;45.53;;;35.85;;
44212;SDS011;29882;46.356;17.798;2022-10-31T21:18:49;43.28;;;35.30;;
44212;SDS011;29882;46.356;17.798;2022-10-31T21:21:18;39.60;;;33.10;;
44212;SDS011;29882;46.356;17.798;2022-10-31T21:24:19;39.83;;;32.42;;
44212;SDS011;29882;46.356;17.798;2022-10-31T21:26:47;39.95;;;33.17;;
44212;SDS011;29882;46.356;17.798;2022-10-31T21:29:16;38.80;;;32.03;;
44212;SDS011;29882;46.356;17.798;2022-10-31T21:31:46;38.83;;;31.95;;
44212;SDS011;29882;46.356;17.798;2022-10-31T21:34:14;39.63;;;31.52;;
44212;SDS011;29882;46.356;17.798;2022-10-31T21:36:41;42.13;;;33.67;;
44212;SDS011;29882;46.356;17.798;2022-10-31T21:39:08;41.20;;;32.72;;
44212;SDS011;29882;46.356;17.798;2022-10-31T21:41:35;41.05;;;33.13;;
44212;SDS011;29882;46.356;17.798;2022-10-31T21:44:03;41.70;;;33.72;;
44212;SDS011;29882;46.356;17.798;2022-10-31T21:46:31;42.70;;;33.47;;
44212;SDS011;29882;46.356;17.798;2022-10-31T21:49:00;41.28;;;33.42;;
44212;SDS011;29882;46.356;17.798;2022-10-31T21:51:30;44.60;;;34.55;;
44212;SDS011;29882;46.356;17.798;2022-10-31T21:54:00;41.53;;;34.45;;
44212;SDS011;29882;46.356;17.798;2022-10-31T21:56:46;42.20;;;33.25;;
44212;SDS011;29882;46.356;17.798;2022-10-31T21:59:13;41.28;;;34.25;;
44212;SDS011;29882;46.356;17.798;2022-10-31T22:01:40;41.58;;;32.55;;
44212;SDS011;29882;46.356;17.798;2022-10-31T22:04:07;43.65;;;34.55;;
44212;SDS011;29882;46.356;17.798;2022-10-31T22:06:35;41.47;;;33.30;;
44212;SDS011;29882;46.356;17.798;2022-10-31T22:09:03;40.00;;;32.85;;
44212;SDS011;29882;46.356;17.798;2022-10-31T22:11:32;41.70;;;33.28;;
44212;SDS011;29882;46.356;17.798;2022-10-31T22:14:00;42.95;;;32.45;;
44212;SDS011;29882;46.356;17.798;2022-10-31T22:16:28;43.67;;;34.65;;
44212;SDS011;29882;46.356;17.798;2022-10-31T22:18:56;43.80;;;34.40;;
44212;SDS011;29882;46.356;17.798;2022-10-31T22:21:25;49.92;;;35.90;;
44212;SDS011;29882;46.356;17.798;2022-10-31T22:23:57;45.90;;;35.00;;
44212;SDS011;29882;46.356;17.798;2022-10-31T22:26:30;47.60;;;36.38;;
44212;SDS011;29882;46.356;17.798;2022-10-31T22:28:57;46.92;;;35.70;;
44212;SDS011;29882;46.356;17.798;2022-10-31T22:31:26;49.08;;;36.45;;
44212;SDS011;29882;46.356;17.798;2022-10-31T22:33:54;51.40;;;37.22;;
44212;SDS011;29882;46.356;17.798;2022-10-31T22:36:23;51.58;;;37.88;;
44212;SDS011;29882;46.356;17.798;2022-10-31T22:38:55;51.65;;;38.38;;
44212;SDS011;29882;46.356;17.798;2022-10-31T22:41:24;49.72;;;36.47;;
44212;SDS011;29882;46.356;17.798;2022-10-31T22:43:53;51.88;;;38.05;;
44212;SDS011;29882;46.356;17.798;2022-10-31T22:46:21;54.58;;;38.30;;
44212;SDS011;29882;46.356;17.798;2022-10-31T22:48:54;50.95;;;38.90;;
44212;SDS011;29882;46.356;17.798;2022-10-31T22:51:29;53.38;;;37.00;;
44212;SDS011;29882;46.356;17.798;2022-10-31T22:53:58;53.08;;;37.53;;
44212;SDS011;29882;46.356;17.798;2022-10-31T22:56:29;54.97;;;38.70;;
44212;SDS011;29882;46.356;17.798;2022-10-31T22:58:58;53.57;;;38.90;;
44212;SDS011;29882;46.356;17.798;2022-10-31T23:01:27;55.80;;;39.60;;
44212;SDS011;29882;46.356;17.798;2022-10-31T23:03:56;53.03;;;39.42;;
44212;SDS011;29882;46.356;17.798;2022-10-31T23:06:24;55.92;;;39.33;;
44212;SDS011;29882;46.356;17.798;2022-10-31T23:08:53;60.25;;;41.13;;
44212;SDS011;29882;46.356;17.798;2022-10-31T23:13:47;60.28;;;40.88;;
44212;SDS011;29882;46.356;17.798;2022-10-31T23:19:03;61.13;;;42.40;;
44212;SDS011;29882;46.356;17.798;2022-10-31T23:21:34;60.35;;;42.58;;
44212;SDS011;29882;46.356;17.798;2022-10-31T23:27:09;61.85;;;42.30;;
44212;SDS011;29882;46.356;17.798;2022-10-31T23:29:48;65.33;;;43.80;;
44212;SDS011;29882;46.356;17.798;2022-10-31T23:34:49;64.40;;;41.90;;
44212;SDS011;29882;46.356;17.798;2022-10-31T23:37:18;61.95;;;43.25;;
44212;SDS011;29882;46.356;17.798;2022-10-31T23:39:47;62.70;;;43.42;;
44212;SDS011;29882;46.356;17.798;2022-10-31T23:42:14;61.00;;;43.40;;
44212;SDS011;29882;46.356;17.798;2022-10-31T23:44:42;58.92;;;42.03;;
44212;SDS011;29882;46.356;17.798;2022-10-31T23:47:10;64.30;;;43.47;;
44212;SDS011;29882;46.356;17.798;2022-10-31T23:49:37;63.80;;;43.63;;
44212;SDS011;29882;46.356;17.798;2022-10-31T23:52:04;67.80;;;45.13;;
44212;SDS011;29882;46.356;17.798;2022-10-31T23:54:32;65.75;;;44.92;;
44212;SDS011;29882;46.356;17.798;2022-10-31T23:56:59;65.20;;;45.00;;
44212;SDS011;29882;46.356;17.798;2022-10-31T23:59:27;68.28;;;46.00;;
